Archival Weather

Chicago O'Hare International

Chicago, Illinois (KORD)

Report from: Tuesday, December 6, 2022 10:51 AM CST
Current time: Saturday, February 4, 2023 9:44 PM CST

Current weather
Weather history
Weather forecast

Temperature6.1°C (43.0°F)
Wind chill3.1°C (37.7°F)
Dew point1.7°C (35.1°F)
Winds 8 kts (4.1 m/s, 9.2 mph) East-Northeast (70°)
Visibility8 mi. (12.9 km)
Clouds Ceiling: Overcast 1,400 ft. (427 m)
Altimeter30.01 in.Hg (1016 mB)
Relative humidity73 %
Density altitude-1,072 ft. (-327 m)
Sea-level pressure101.7 kPa (1017 mB, 30.02 in.Hg)
Remarks Automated weather observing station with precipitation discriminator
Flight conditions Marginal Visual Meteorological Conditions
Raw dataKORD 061651Z 07008KT 8SM OVC014 06/02 A3001 RMK AO2 SLP166 T00610017
An unhandled exception has occurred. See browser dev tools for details. Reload 🗙